createdAt,value
2022-11-30T00:01:22.633Z,12.73
2022-11-30T00:03:54.050Z,12.65
2022-11-30T00:06:23.542Z,14.25
2022-11-30T00:08:55.659Z,12.98
2022-11-30T00:13:51.290Z,12.10
2022-11-30T00:16:19.031Z,12.57
2022-11-30T00:18:46.909Z,12.73
2022-11-30T00:21:17.181Z,12.52
2022-11-30T00:23:46.009Z,12.18
2022-11-30T00:26:18.688Z,12.55
2022-11-30T00:28:46.748Z,11.57
2022-11-30T00:31:16.308Z,12.23
2022-11-30T00:33:43.795Z,10.63
2022-11-30T00:36:14.137Z,10.30
2022-11-30T00:38:41.831Z,9.63
2022-11-30T00:41:09.247Z,11.10
2022-11-30T00:43:36.886Z,9.88
2022-11-30T00:46:04.784Z,10.35
2022-11-30T00:48:32.534Z,11.35
2022-11-30T00:50:59.931Z,12.20
2022-11-30T00:53:27.313Z,10.98
2022-11-30T00:55:55.106Z,10.93
2022-11-30T00:58:22.525Z,10.48
2022-11-30T01:00:49.985Z,11.30
2022-11-30T01:03:17.316Z,11.77
2022-11-30T01:05:44.680Z,11.90
2022-11-30T01:08:13.043Z,12.60
2022-11-30T01:10:42.910Z,12.98
2022-11-30T01:13:12.756Z,12.18
2022-11-30T01:15:44.272Z,12.48
2022-11-30T01:18:12.149Z,12.93
2022-11-30T01:20:43.446Z,11.98
2022-11-30T01:23:11.527Z,12.18
2022-11-30T01:25:39.752Z,12.43
2022-11-30T01:28:07.149Z,11.35
2022-11-30T01:30:34.560Z,11.73
2022-11-30T01:33:03.480Z,11.68
2022-11-30T01:35:30.872Z,11.73
2022-11-30T01:37:58.171Z,11.18
2022-11-30T01:40:25.599Z,11.80
2022-11-30T01:42:52.952Z,11.43
2022-11-30T01:45:20.314Z,11.43
2022-11-30T01:47:51.565Z,11.40
2022-11-30T01:50:35.408Z,11.13
2022-11-30T01:53:05.448Z,11.80
2022-11-30T01:55:37.810Z,11.60
2022-11-30T01:58:12.257Z,11.70
2022-11-30T02:00:44.182Z,11.75
2022-11-30T02:03:20.179Z,12.32
2022-11-30T02:05:48.751Z,11.50
2022-11-30T02:08:17.351Z,11.35
2022-11-30T02:10:52.461Z,11.38
2022-11-30T02:13:57.053Z,11.35
2022-11-30T02:16:35.621Z,11.25
2022-11-30T02:19:14.773Z,11.15
2022-11-30T02:21:56.156Z,10.93
2022-11-30T02:24:56.463Z,11.27
2022-11-30T02:27:30.735Z,10.50
2022-11-30T02:30:03.678Z,11.32
2022-11-30T02:32:42.193Z,11.75
2022-11-30T02:35:12.074Z,11.15
2022-11-30T02:37:40.026Z,10.80
2022-11-30T02:40:15.681Z,10.85
2022-11-30T02:42:43.097Z,11.23
2022-11-30T02:45:11.391Z,10.70
2022-11-30T02:47:48.535Z,10.18
2022-11-30T02:50:21.193Z,10.57
2022-11-30T02:52:52.151Z,10.80
2022-11-30T02:55:20.371Z,10.75
2022-11-30T02:57:47.917Z,10.88
2022-11-30T03:00:16.039Z,10.52
2022-11-30T03:02:43.449Z,11.25
2022-11-30T03:05:10.857Z,10.25
2022-11-30T03:07:38.395Z,10.45
2022-11-30T03:10:06.590Z,11.43
2022-11-30T03:12:34.062Z,10.65
2022-11-30T03:15:01.712Z,10.73
2022-11-30T03:17:29.114Z,10.23
2022-11-30T03:19:56.500Z,10.25
2022-11-30T03:22:24.172Z,11.25
2022-11-30T03:24:51.527Z,11.32
2022-11-30T03:27:19.093Z,10.95
2022-11-30T03:29:46.380Z,11.50
2022-11-30T03:32:13.843Z,9.95
2022-11-30T03:34:41.555Z,10.25
2022-11-30T03:37:08.932Z,10.90
2022-11-30T03:39:36.335Z,10.68
2022-11-30T03:42:03.944Z,10.52
2022-11-30T03:44:31.392Z,11.80
2022-11-30T03:46:58.719Z,11.43
2022-11-30T03:49:26.012Z,11.27
2022-11-30T03:51:53.534Z,11.45
2022-11-30T03:54:22.526Z,11.70
2022-11-30T03:56:49.911Z,11.98
2022-11-30T03:59:17.223Z,11.48
2022-11-30T04:01:44.675Z,11.90
2022-11-30T04:04:12.458Z,11.57
2022-11-30T04:06:40.722Z,11.70
2022-11-30T04:09:09.436Z,12.10
2022-11-30T04:11:36.962Z,11.98
2022-11-30T04:14:04.419Z,12.65
2022-11-30T04:16:32.171Z,11.63
2022-11-30T04:19:00.077Z,12.35
2022-11-30T04:21:27.444Z,12.40
2022-11-30T04:23:54.769Z,11.98
2022-11-30T04:26:22.195Z,12.40
2022-11-30T04:28:49.599Z,13.07
2022-11-30T04:31:17.059Z,12.95
2022-11-30T04:33:44.546Z,11.68
2022-11-30T04:36:20.265Z,12.60
2022-11-30T04:38:49.295Z,12.55
2022-11-30T04:41:19.442Z,12.48
2022-11-30T04:43:47.872Z,12.50
2022-11-30T04:46:15.424Z,12.63
2022-11-30T04:48:42.869Z,12.77
2022-11-30T04:51:10.279Z,12.82
2022-11-30T04:53:38.820Z,12.65
2022-11-30T04:56:08.328Z,13.18
2022-11-30T04:58:36.474Z,12.25
2022-11-30T05:01:03.985Z,12.35
2022-11-30T05:03:31.329Z,12.70
2022-11-30T05:05:58.653Z,12.50
2022-11-30T05:08:26.395Z,12.90
2022-11-30T05:10:55.619Z,12.32
2022-11-30T05:13:24.868Z,12.55
2022-11-30T05:15:53.920Z,12.65
2022-11-30T05:18:22.159Z,12.00
2022-11-30T05:20:51.361Z,12.05
2022-11-30T05:23:19.668Z,13.27
2022-11-30T05:25:47.917Z,11.73
2022-11-30T05:28:15.473Z,12.52
2022-11-30T05:30:43.834Z,13.60
2022-11-30T05:33:13.959Z,12.20
2022-11-30T05:35:44.093Z,14.23
2022-11-30T05:38:11.574Z,13.18
2022-11-30T05:40:38.920Z,12.70
2022-11-30T05:43:06.545Z,13.13
2022-11-30T05:45:33.920Z,12.52
2022-11-30T05:48:01.443Z,13.43
2022-11-30T05:50:28.957Z,12.63
2022-11-30T05:52:56.676Z,13.23
2022-11-30T05:55:24.975Z,13.30
2022-11-30T05:57:52.536Z,13.90
2022-11-30T06:00:21.704Z,13.40
2022-11-30T06:02:56.354Z,13.40
2022-11-30T06:05:24.638Z,13.57
2022-11-30T06:07:52.078Z,14.32
2022-11-30T06:10:20.159Z,12.98
2022-11-30T06:12:48.685Z,13.45
2022-11-30T06:15:16.153Z,13.77
2022-11-30T06:17:43.436Z,14.10
2022-11-30T06:20:11.108Z,13.27
2022-11-30T06:22:38.415Z,13.65
2022-11-30T06:25:05.955Z,14.85
2022-11-30T06:27:33.572Z,13.57
2022-11-30T06:30:01.599Z,13.48
2022-11-30T06:32:28.963Z,14.23
2022-11-30T06:34:56.299Z,12.75
2022-11-30T06:37:23.661Z,14.10
2022-11-30T06:40:09.482Z,13.55
2022-11-30T06:42:38.077Z,12.63
2022-11-30T06:45:07.136Z,14.15
2022-11-30T06:47:34.627Z,13.50
2022-11-30T06:50:02.153Z,13.63
2022-11-30T06:52:32.441Z,13.27
2022-11-30T06:54:59.825Z,14.55
2022-11-30T06:57:28.859Z,12.80
2022-11-30T06:59:56.974Z,13.38
2022-11-30T07:02:24.432Z,13.88
2022-11-30T07:04:51.955Z,14.38
2022-11-30T07:07:19.430Z,13.88
2022-11-30T07:09:46.982Z,13.68
2022-11-30T07:12:14.299Z,12.60
2022-11-30T07:14:41.692Z,13.77
2022-11-30T07:17:09.021Z,14.30
2022-11-30T07:19:36.378Z,13.77
2022-11-30T07:22:03.965Z,13.73
2022-11-30T07:24:49.792Z,14.00
2022-11-30T07:27:19.176Z,14.15
2022-11-30T07:29:48.954Z,13.80
2022-11-30T07:32:16.297Z,14.45
2022-11-30T07:34:43.676Z,14.35
2022-11-30T07:37:11.466Z,14.20
2022-11-30T07:39:38.885Z,14.32
2022-11-30T07:42:06.201Z,13.63
2022-11-30T07:44:33.595Z,13.77
2022-11-30T07:47:01.169Z,14.60
2022-11-30T07:49:28.624Z,12.55
2022-11-30T07:51:56.005Z,12.75
2022-11-30T07:54:25.723Z,13.77
2022-11-30T07:56:53.080Z,13.20
2022-11-30T07:59:20.485Z,14.02
2022-11-30T08:01:47.936Z,13.75
2022-11-30T08:04:15.466Z,13.52
2022-11-30T08:06:42.998Z,13.25
2022-11-30T08:09:19.218Z,14.15
2022-11-30T08:11:49.247Z,14.55
2022-11-30T08:14:16.623Z,14.60
2022-11-30T08:16:44.593Z,14.38
2022-11-30T08:19:12.022Z,14.95
2022-11-30T08:21:42.407Z,14.82
2022-11-30T08:24:13.133Z,14.25
2022-11-30T08:26:40.564Z,14.80
2022-11-30T08:29:11.260Z,13.18
2022-11-30T08:31:39.105Z,14.43
2022-11-30T08:34:10.645Z,15.13
2022-11-30T08:36:39.753Z,15.98
2022-11-30T08:39:09.065Z,15.15
2022-11-30T08:41:36.815Z,15.82
2022-11-30T08:44:04.349Z,16.20
2022-11-30T08:46:50.993Z,15.07
2022-11-30T08:49:23.121Z,14.75
2022-11-30T08:52:16.538Z,15.23
2022-11-30T08:54:45.234Z,14.75
2022-11-30T08:57:13.278Z,15.77
2022-11-30T08:59:40.689Z,15.02
2022-11-30T09:02:10.894Z,15.25
2022-11-30T09:04:38.264Z,14.68
2022-11-30T09:07:06.061Z,14.02
2022-11-30T09:09:33.434Z,14.73
2022-11-30T09:12:00.853Z,13.55
2022-11-30T09:14:28.213Z,13.90
2022-11-30T09:16:55.569Z,12.52
2022-11-30T09:19:25.708Z,12.32
2022-11-30T09:21:53.220Z,12.20
2022-11-30T09:24:21.085Z,11.55
2022-11-30T09:26:48.575Z,10.35
2022-11-30T09:29:16.226Z,10.90
2022-11-30T09:31:43.685Z,10.93
2022-11-30T09:34:12.195Z,10.30
2022-11-30T09:36:40.052Z,10.70
2022-11-30T09:39:10.708Z,10.52
2022-11-30T09:42:08.277Z,11.30
2022-11-30T09:45:02.325Z,10.63
2022-11-30T09:48:12.189Z,10.65
2022-11-30T09:50:44.713Z,10.43
2022-11-30T09:53:23.259Z,10.02
2022-11-30T09:55:56.733Z,8.63
2022-11-30T09:58:45.447Z,8.98
2022-11-30T10:01:21.124Z,8.82
2022-11-30T10:03:48.705Z,8.43
2022-11-30T10:06:26.320Z,7.53
2022-11-30T10:08:56.270Z,8.02
2022-11-30T10:11:23.598Z,7.90
2022-11-30T10:13:50.909Z,8.05
2022-11-30T10:16:43.142Z,7.80
2022-11-30T10:19:16.267Z,6.85
2022-11-30T10:21:50.533Z,6.47
2022-11-30T10:24:23.946Z,6.88
2022-11-30T10:26:56.368Z,7.75
2022-11-30T10:29:42.727Z,7.95
2022-11-30T10:32:31.481Z,7.80
2022-11-30T10:35:13.254Z,7.80
2022-11-30T10:37:42.489Z,7.90
2022-11-30T10:40:29.506Z,7.40
2022-11-30T10:43:23.248Z,7.00
2022-11-30T10:45:51.394Z,6.78
2022-11-30T10:48:40.708Z,6.20
2022-11-30T10:51:10.756Z,6.15
2022-11-30T10:53:38.525Z,6.18
2022-11-30T10:56:12.166Z,6.30
2022-11-30T10:58:55.431Z,5.88
2022-11-30T11:01:35.002Z,5.80
2022-11-30T11:04:17.901Z,6.05
2022-11-30T11:06:55.292Z,5.82
2022-11-30T11:09:49.074Z,6.00
2022-11-30T11:12:25.704Z,5.97
2022-11-30T11:15:09.923Z,6.25
2022-11-30T11:17:37.340Z,5.45
2022-11-30T11:20:38.242Z,5.55
2022-11-30T11:23:06.268Z,4.93
2022-11-30T11:25:37.464Z,4.85
2022-11-30T11:28:19.560Z,5.15
2022-11-30T11:33:15.420Z,6.03
2022-11-30T11:36:16.916Z,3.80
2022-11-30T11:38:48.456Z,4.00
2022-11-30T11:41:21.426Z,4.30
2022-11-30T11:44:21.272Z,4.55
2022-11-30T11:47:02.931Z,4.43
2022-11-30T11:49:34.479Z,5.13
2022-11-30T11:52:09.251Z,4.80
2022-11-30T11:54:49.806Z,4.75
2022-11-30T11:57:21.205Z,4.43
2022-11-30T12:00:00.576Z,4.40
2022-11-30T12:02:45.580Z,4.90
2022-11-30T12:05:20.321Z,5.80
2022-11-30T12:08:04.513Z,5.22
2022-11-30T12:10:53.271Z,5.30
2022-11-30T12:13:27.198Z,6.05
2022-11-30T12:16:11.795Z,5.80
2022-11-30T12:18:57.691Z,5.82
2022-11-30T12:22:02.511Z,5.78
2022-11-30T12:24:52.431Z,5.35
2022-11-30T12:27:53.642Z,5.60
2022-11-30T12:30:47.888Z,5.90
2022-11-30T12:33:43.773Z,5.63
2022-11-30T12:36:25.659Z,5.63
2022-11-30T12:39:05.759Z,5.85
2022-11-30T12:41:49.279Z,6.13
2022-11-30T12:44:53.806Z,6.18
2022-11-30T12:47:30.613Z,6.65
2022-11-30T12:50:22.297Z,6.53
2022-11-30T12:53:21.881Z,6.30
2022-11-30T12:56:26.174Z,6.40
2022-11-30T12:59:07.148Z,6.03
2022-11-30T13:01:53.447Z,6.05
2022-11-30T13:04:28.417Z,5.43
2022-11-30T13:07:05.981Z,6.72
2022-11-30T13:09:36.990Z,6.32
2022-11-30T13:12:36.298Z,7.00
2022-11-30T13:15:20.109Z,5.72
2022-11-30T13:17:49.848Z,5.78
2022-11-30T13:20:31.443Z,6.25
2022-11-30T13:23:37.101Z,5.82
2022-11-30T13:26:29.602Z,6.60
2022-11-30T13:29:18.598Z,6.30
2022-11-30T13:31:57.289Z,7.13
2022-11-30T13:34:29.565Z,6.30
2022-11-30T13:37:06.197Z,6.65
2022-11-30T13:39:50.704Z,6.05
2022-11-30T13:42:36.388Z,6.45
2022-11-30T13:45:12.793Z,6.65
2022-11-30T13:47:51.387Z,6.15
2022-11-30T13:50:28.496Z,6.93
2022-11-30T13:52:58.993Z,6.68
2022-11-30T13:55:41.561Z,6.53
2022-11-30T13:58:12.941Z,6.18
2022-11-30T14:00:40.726Z,10.07
2022-11-30T14:03:25.014Z,11.90
2022-11-30T14:05:53.264Z,11.18
2022-11-30T14:08:23.508Z,11.07
2022-11-30T14:10:52.881Z,11.77
2022-11-30T14:13:22.642Z,11.75
2022-11-30T14:15:50.006Z,11.80
2022-11-30T14:18:20.152Z,11.55
2022-11-30T14:20:50.598Z,11.70
2022-11-30T14:23:43.030Z,12.10
2022-11-30T14:26:15.685Z,12.35
2022-11-30T14:28:47.065Z,12.45
2022-11-30T14:31:23.140Z,11.60
2022-11-30T14:33:55.658Z,11.68
2022-11-30T14:36:27.491Z,12.20
2022-11-30T14:38:54.924Z,11.70
2022-11-30T14:41:28.163Z,11.55
2022-11-30T14:44:02.673Z,11.32
2022-11-30T14:46:36.112Z,12.38
2022-11-30T14:49:12.457Z,11.70
2022-11-30T14:51:42.369Z,11.93
2022-11-30T14:54:19.329Z,12.95
2022-11-30T14:56:50.234Z,12.25
2022-11-30T14:59:45.982Z,12.48
2022-11-30T15:02:24.313Z,12.63
2022-11-30T15:04:54.382Z,11.73
2022-11-30T15:07:23.078Z,11.40
2022-11-30T15:09:54.812Z,12.13
2022-11-30T15:12:24.807Z,11.57
2022-11-30T15:15:09.091Z,13.00
2022-11-30T15:17:51.213Z,12.43
2022-11-30T15:22:48.328Z,12.20
2022-11-30T15:25:15.898Z,11.88
2022-11-30T15:27:43.621Z,12.25
2022-11-30T15:30:16.770Z,12.05
2022-11-30T15:32:46.777Z,11.93
2022-11-30T15:35:24.083Z,11.90
2022-11-30T15:37:53.552Z,12.20
2022-11-30T15:40:35.808Z,12.13
2022-11-30T15:43:03.326Z,12.38
2022-11-30T15:45:33.140Z,12.27
2022-11-30T15:48:01.174Z,12.73
2022-11-30T15:50:28.582Z,12.30
2022-11-30T15:52:59.086Z,11.85
2022-11-30T15:55:50.000Z,12.27
2022-11-30T15:58:45.705Z,11.82
2022-11-30T16:01:25.074Z,11.43
2022-11-30T16:03:55.286Z,11.77
2022-11-30T16:06:28.088Z,11.60
2022-11-30T16:08:58.393Z,12.15
2022-11-30T16:11:25.907Z,11.77
2022-11-30T16:13:53.361Z,12.48
2022-11-30T16:16:30.938Z,12.80
2022-11-30T16:18:58.273Z,13.38
2022-11-30T16:21:25.621Z,11.77
2022-11-30T16:23:53.119Z,11.98
2022-11-30T16:26:49.592Z,12.18
2022-11-30T16:29:10.561Z,12.18
2022-11-30T16:31:38.855Z,13.43
2022-11-30T16:34:08.722Z,12.68
2022-11-30T16:36:38.163Z,12.88
2022-11-30T16:39:05.968Z,13.15
2022-11-30T16:41:34.954Z,12.73
2022-11-30T16:44:08.686Z,12.00
2022-11-30T16:46:36.498Z,13.23
2022-11-30T16:49:03.909Z,12.00
2022-11-30T16:51:34.617Z,12.60
2022-11-30T16:54:03.116Z,11.65
2022-11-30T16:56:30.492Z,12.25
2022-11-30T16:58:58.613Z,12.85
2022-11-30T17:01:43.188Z,12.23
2022-11-30T17:04:20.066Z,12.45
2022-11-30T17:06:50.619Z,12.38
2022-11-30T17:09:20.550Z,10.73
2022-11-30T17:11:52.779Z,13.50
2022-11-30T17:14:21.299Z,11.90
2022-11-30T17:16:48.677Z,12.02
2022-11-30T17:19:16.094Z,11.75
2022-11-30T17:21:44.805Z,12.88
2022-11-30T17:24:13.013Z,11.93
2022-11-30T17:26:40.699Z,11.88
2022-11-30T17:29:08.196Z,10.98
2022-11-30T17:31:35.729Z,12.00
2022-11-30T17:34:03.081Z,12.13
2022-11-30T17:36:30.453Z,11.00
2022-11-30T17:38:57.863Z,11.75
2022-11-30T17:41:25.199Z,11.85
2022-11-30T17:43:54.929Z,11.30
2022-11-30T17:46:22.675Z,11.52
2022-11-30T17:48:50.689Z,11.18
2022-11-30T17:51:18.100Z,11.98
2022-11-30T17:53:45.446Z,11.27
2022-11-30T17:56:15.526Z,12.85
2022-11-30T17:58:46.933Z,12.38
2022-11-30T18:01:26.171Z,13.18
2022-11-30T18:03:55.323Z,12.15
2022-11-30T18:06:22.932Z,12.43
2022-11-30T18:08:50.270Z,12.18
2022-11-30T18:11:23.361Z,12.20
2022-11-30T18:13:53.652Z,12.15
2022-11-30T18:16:26.816Z,13.38
2022-11-30T18:18:56.669Z,14.13
2022-11-30T18:21:26.172Z,12.43
2022-11-30T18:23:56.113Z,13.00
2022-11-30T18:26:25.049Z,11.63
2022-11-30T18:28:54.413Z,12.38
2022-11-30T18:31:22.162Z,11.93
2022-11-30T18:33:55.450Z,11.68
2022-11-30T18:36:23.239Z,11.50
2022-11-30T18:38:50.832Z,11.68
2022-11-30T18:41:18.338Z,11.02
2022-11-30T18:43:45.645Z,11.63
2022-11-30T18:46:13.818Z,12.38
2022-11-30T18:48:41.864Z,11.25
2022-11-30T18:51:18.070Z,12.68
2022-11-30T18:53:45.443Z,12.27
2022-11-30T18:56:18.594Z,12.55
2022-11-30T18:58:47.053Z,12.98
2022-11-30T19:01:20.026Z,12.98
2022-11-30T19:04:02.958Z,13.15
2022-11-30T19:06:32.689Z,12.80
2022-11-30T19:09:08.317Z,12.73
2022-11-30T19:11:37.134Z,12.13
2022-11-30T19:14:07.924Z,12.82
2022-11-30T19:16:35.867Z,13.25
2022-11-30T19:19:06.042Z,13.63
2022-11-30T19:21:33.805Z,13.00
2022-11-30T19:24:01.706Z,12.82
2022-11-30T19:26:32.278Z,14.20
2022-11-30T19:28:59.764Z,12.85
2022-11-30T19:31:27.400Z,13.52
2022-11-30T19:33:55.879Z,14.63
2022-11-30T19:36:26.736Z,15.57
2022-11-30T19:38:55.227Z,15.48
2022-11-30T19:41:22.835Z,15.85
2022-11-30T19:44:04.048Z,15.88
2022-11-30T19:46:33.035Z,15.95
2022-11-30T19:49:02.529Z,15.63
2022-11-30T19:51:31.010Z,14.57
2022-11-30T19:54:01.735Z,14.73
2022-11-30T19:56:31.412Z,14.52
2022-11-30T19:59:04.560Z,15.50
2022-11-30T20:01:33.585Z,12.63
2022-11-30T20:04:01.195Z,14.00
2022-11-30T20:06:31.499Z,12.77
2022-11-30T20:08:58.936Z,13.13
2022-11-30T20:11:26.401Z,14.10
2022-11-30T20:13:54.124Z,15.02
2022-11-30T20:16:22.843Z,14.80
2022-11-30T20:19:00.800Z,14.82
2022-11-30T20:21:31.354Z,12.60
2022-11-30T20:24:00.898Z,14.48
2022-11-30T20:26:30.995Z,14.57
2022-11-30T20:29:00.235Z,14.52
2022-11-30T20:31:32.079Z,13.75
2022-11-30T20:33:59.623Z,13.98
2022-11-30T20:36:27.252Z,13.48
2022-11-30T20:38:55.096Z,14.60
2022-11-30T20:41:24.152Z,15.07
2022-11-30T20:43:52.292Z,14.48
2022-11-30T20:46:23.814Z,14.65
2022-11-30T20:48:52.878Z,13.80
2022-11-30T20:51:31.337Z,14.43
2022-11-30T20:54:05.707Z,15.20
2022-11-30T20:56:35.321Z,13.90
2022-11-30T20:59:05.953Z,11.90
2022-11-30T21:01:33.985Z,12.55
2022-11-30T21:04:01.793Z,12.77
2022-11-30T21:06:30.059Z,13.10
2022-11-30T21:08:58.540Z,11.75
2022-11-30T21:11:27.037Z,11.38
2022-11-30T21:13:54.685Z,11.73
2022-11-30T21:16:28.174Z,9.77
2022-11-30T21:19:00.963Z,10.48
2022-11-30T21:21:31.425Z,9.88
2022-11-30T21:24:00.688Z,10.80
2022-11-30T21:26:34.052Z,10.88
2022-11-30T21:29:05.506Z,10.98
2022-11-30T21:31:33.939Z,13.15
2022-11-30T21:34:02.003Z,11.43
2022-11-30T21:36:29.519Z,10.85
2022-11-30T21:39:05.078Z,10.80
2022-11-30T21:41:35.977Z,10.43
2022-11-30T21:44:05.866Z,10.63
2022-11-30T21:46:33.841Z,11.60
2022-11-30T21:49:02.004Z,11.00
2022-11-30T21:51:30.378Z,9.63
2022-11-30T21:54:03.064Z,9.98
2022-11-30T21:56:35.700Z,9.48
2022-11-30T21:59:08.898Z,10.25
2022-11-30T22:01:41.986Z,12.20
2022-11-30T22:04:11.307Z,28.88
2022-11-30T22:06:40.181Z,10.88
2022-11-30T22:09:13.913Z,10.13
2022-11-30T22:11:44.995Z,10.73
2022-11-30T22:14:16.042Z,9.43
2022-11-30T22:16:44.543Z,9.00
2022-11-30T22:19:12.000Z,8.65
2022-11-30T22:21:39.613Z,9.05
2022-11-30T22:24:10.738Z,9.55
2022-11-30T22:26:40.416Z,8.93
2022-11-30T22:29:15.490Z,9.73
2022-11-30T22:31:45.917Z,9.15
2022-11-30T22:34:14.097Z,9.45
2022-11-30T22:36:43.334Z,10.07
2022-11-30T22:39:16.830Z,9.15
2022-11-30T22:41:45.875Z,9.70
2022-11-30T22:44:15.160Z,10.23
2022-11-30T22:46:44.433Z,10.15
2022-11-30T22:49:20.672Z,10.98
2022-11-30T22:51:49.736Z,10.77
2022-11-30T22:54:18.505Z,10.73
2022-11-30T22:56:46.568Z,10.48
2022-11-30T22:59:15.997Z,10.48
2022-11-30T23:01:48.724Z,11.38
2022-11-30T23:04:18.859Z,9.73
2022-11-30T23:06:48.329Z,11.82
2022-11-30T23:09:21.706Z,11.40
2022-11-30T23:11:50.372Z,15.32
2022-11-30T23:14:18.678Z,14.27
2022-11-30T23:16:46.222Z,15.48
2022-11-30T23:19:14.423Z,14.40
2022-11-30T23:21:45.620Z,12.02
2022-11-30T23:24:20.318Z,12.47
2022-11-30T23:26:48.378Z,12.05
2022-11-30T23:29:17.516Z,12.57
2022-11-30T23:31:46.210Z,11.48
2022-11-30T23:34:19.705Z,12.63
2022-11-30T23:36:48.347Z,11.88
2022-11-30T23:39:17.657Z,11.43
2022-11-30T23:41:45.075Z,11.90
2022-11-30T23:44:12.457Z,12.15
2022-11-30T23:46:40.195Z,10.40
2022-11-30T23:49:08.346Z,11.02
2022-11-30T23:51:35.897Z,10.55
2022-11-30T23:54:03.705Z,11.63
2022-11-30T23:56:31.223Z,11.32
2022-11-30T23:58:58.782Z,11.13
